Time;durP1;ratioP1;P1;durP2;ratioP2;P2;SDS_P1;SDS_P2;PMS_P1;PMS_P2;Temp;Humidity;BMP_temperature;BMP_pressure;BME280_temperature;BME280_humidity;BME280_pressure;Samples;Min_cycle;Max_cycle;Signal;HPM_P1;HPM_P2
2023/01/04 00:01:41;;;;;;;9.30;1.50;;;8.70;99.90;;;;;;4144687;28;20029;-70
2023/01/04 00:03:42;;;;;;;5.45;1.30;;;8.70;99.90;;;;;;4145908;28;20540;-71
2023/01/04 00:05:43;;;;;;;4.68;1.60;;;8.80;99.90;;;;;;4143187;28;20037;-71
2023/01/04 00:07:43;;;;;;;8.23;1.67;;;8.80;99.90;;;;;;4145285;28;20112;-71
2023/01/04 00:09:44;;;;;;;5.53;1.45;;;8.90;99.90;;;;;;4145762;28;20040;-71
2023/01/04 00:11:45;;;;;;;10.35;1.45;;;8.90;99.90;;;;;;4141433;28;20083;-71
2023/01/04 00:13:47;;;;;;;4.95;1.27;;;8.90;99.90;;;;;;4145352;28;20048;-72
2023/01/04 00:15:47;;;;;;;4.50;1.58;;;9.00;99.90;;;;;;4143868;28;20030;-71
2023/01/04 00:17:48;;;;;;;2.70;1.33;;;9.00;99.90;;;;;;4145150;28;20034;-71
2023/01/04 00:19:48;;;;;;;5.72;1.17;;;9.00;99.90;;;;;;4144769;28;20444;-72
2023/01/04 00:21:49;;;;;;;3.88;1.33;;;9.10;99.90;;;;;;4145310;28;20134;-71
2023/01/04 00:23:52;;;;;;;4.57;1.33;;;9.10;99.90;;;;;;4145392;28;20025;-73
2023/01/04 00:25:52;;;;;;;6.00;1.63;;;9.10;99.90;;;;;;4144389;28;20030;-72
2023/01/04 00:27:53;;;;;;;4.30;1.50;;;9.20;99.90;;;;;;4145338;28;20109;-72
2023/01/04 00:29:53;;;;;;;3.80;1.42;;;9.20;99.90;;;;;;4136926;28;20072;-72
2023/01/04 00:31:54;;;;;;;4.47;1.45;;;9.20;99.90;;;;;;4144621;28;20042;-71
2023/01/04 00:33:56;;;;;;;2.90;1.15;;;9.20;99.90;;;;;;4144771;28;20026;-72
2023/01/04 00:36:03;;;;;;;8.20;1.33;;;9.20;99.90;;;;;;4136815;28;20030;-72
2023/01/04 00:38:03;;;;;;;6.95;1.30;;;9.20;99.90;;;;;;4141976;28;20034;-71
2023/01/04 00:40:04;;;;;;;5.05;1.35;;;9.30;99.90;;;;;;4144396;28;20120;-71
2023/01/04 00:42:05;;;;;;;3.20;1.23;;;9.20;99.90;;;;;;4143989;28;20464;-71
2023/01/04 00:44:06;;;;;;;5.28;1.73;;;9.30;99.90;;;;;;4144844;28;20088;-72
2023/01/04 00:46:10;;;;;;;4.70;1.48;;;9.30;99.90;;;;;;4141966;28;20065;-72
2023/01/04 00:48:10;;;;;;;5.32;1.45;;;9.30;99.90;;;;;;4141865;28;20034;-72
2023/01/04 00:50:11;;;;;;;6.05;1.30;;;9.30;99.90;;;;;;4140097;28;20045;-71
2023/01/04 00:52:11;;;;;;;3.95;1.13;;;9.30;99.90;;;;;;4128649;28;20121;-70
2023/01/04 00:54:14;;;;;;;7.20;1.83;;;9.30;99.90;;;;;;4132196;28;20096;-69
2023/01/04 00:56:14;;;;;;;4.25;1.35;;;9.30;99.90;;;;;;4143335;28;20411;-70
2023/01/04 00:58:15;;;;;;;4.47;1.13;;;9.30;99.90;;;;;;4144340;28;20104;-70
2023/01/04 01:00:16;;;;;;;3.40;1.27;;;9.30;99.90;;;;;;4144090;28;20030;-70
2023/01/04 01:02:16;;;;;;;1.98;0.90;;;9.30;99.90;;;;;;4144838;28;20054;-70
2023/01/04 01:04:19;;;;;;;3.28;1.38;;;9.30;99.90;;;;;;4144727;28;20034;-71
2023/01/04 01:06:20;;;;;;;;;;;9.30;99.90;;;;;;4141730;28;20381;-70
2023/01/04 01:08:23;;;;;;;3.78;1.23;;;9.30;99.90;;;;;;4143367;28;19967;-71
2023/01/04 01:10:24;;;;;;;5.90;1.45;;;9.30;99.90;;;;;;4144215;28;20511;-70
2023/01/04 01:12:24;;;;;;;3.72;1.35;;;9.30;99.90;;;;;;4144564;28;20042;-71
2023/01/04 01:14:25;;;;;;;4.63;1.17;;;9.20;99.90;;;;;;4144894;28;20034;-70
2023/01/04 01:16:26;;;;;;;1.98;0.95;;;9.30;99.90;;;;;;4142215;28;20036;-70
2023/01/04 01:18:28;;;;;;;4.25;1.50;;;9.20;99.90;;;;;;4144408;28;20038;-70
2023/01/04 01:20:29;;;;;;;6.65;1.30;;;9.20;99.90;;;;;;4142734;28;20125;-71
2023/01/04 01:22:31;;;;;;;4.55;1.50;;;9.20;99.90;;;;;;4132195;28;20402;-70
2023/01/04 01:24:31;;;;;;;5.75;1.33;;;9.20;99.90;;;;;;4128831;28;20042;-70
2023/01/04 01:26:32;;;;;;;7.88;1.67;;;9.20;99.90;;;;;;4142360;28;20161;-70
2023/01/04 01:28:34;;;;;;;8.07;1.13;;;9.20;99.90;;;;;;4145046;28;20034;-70
2023/01/04 01:30:42;;;;;;;3.38;1.33;;;9.20;99.90;;;;;;4144810;28;20057;-70
2023/01/04 01:32:42;;;;;;;4.22;1.48;;;9.20;99.90;;;;;;4129574;28;21135;-69
2023/01/04 01:34:43;;;;;;;5.10;1.20;;;9.30;99.90;;;;;;4133024;28;20121;-70
2023/01/04 01:36:44;;;;;;;6.22;1.67;;;9.30;99.90;;;;;;4143879;28;20084;-68
2023/01/04 01:38:44;;;;;;;4.40;1.30;;;9.30;99.90;;;;;;4145209;28;20034;-70
2023/01/04 01:40:45;;;;;;;4.38;1.58;;;9.20;99.90;;;;;;4143469;28;20113;-70
2023/01/04 01:42:45;;;;;;;7.53;1.30;;;9.30;99.90;;;;;;4144650;28;20120;-69
2023/01/04 01:45:00;;;;;;;6.13;1.27;;;9.30;99.90;;;;;;4136332;28;20398;-70
2023/01/04 01:47:00;;;;;;;4.13;0.98;;;9.30;99.90;;;;;;4134227;28;20033;-70
2023/01/04 01:49:13;;;;;;;6.78;1.42;;;9.30;99.90;;;;;;4141454;28;20393;-68
2023/01/04 01:51:16;;;;;;;6.70;1.50;;;9.30;99.90;;;;;;4144186;28;20038;-69
2023/01/04 01:53:18;;;;;;;3.17;1.48;;;9.30;99.90;;;;;;4145114;28;20114;-69
2023/01/04 01:55:19;;;;;;;5.00;1.33;;;9.20;99.90;;;;;;4143406;28;20464;-70
2023/01/04 01:57:24;;;;;;;6.20;1.48;;;9.20;99.90;;;;;;4144350;28;20033;-70
2023/01/04 01:59:26;;;;;;;8.70;1.58;;;9.30;99.90;;;;;;4145215;28;20400;-70
2023/01/04 02:01:27;;;;;;;6.03;1.67;;;9.20;99.90;;;;;;4144681;28;20031;-70
2023/01/04 02:03:35;;;;;;;3.58;1.55;;;9.20;99.90;;;;;;4139561;28;20080;-70
2023/01/04 02:05:36;;;;;;;7.13;1.50;;;9.30;99.90;;;;;;4141221;28;20033;-72
2023/01/04 02:07:37;;;;;;;3.38;1.20;;;9.20;99.90;;;;;;4140973;28;20080;-71
2023/01/04 02:09:39;;;;;;;5.90;1.63;;;9.20;99.90;;;;;;4141925;28;20477;-71
2023/01/04 02:11:40;;;;;;;4.40;1.13;;;9.20;99.90;;;;;;4157115;28;20045;-71
2023/01/04 02:16:59;;;;;;;4.72;1.83;;;9.20;99.90;;;;;;4109773;28;20069;-69
2023/01/04 02:19:20;;;;;;;3.28;1.25;;;9.20;99.90;;;;;;4138496;28;20480;-70
2023/01/04 02:22:07;;;;;;;3.72;0.98;;;9.20;99.90;;;;;;4144227;28;20493;-69
2023/01/04 02:24:26;;;;;;;4.95;1.30;;;9.20;99.90;;;;;;4142396;28;20018;-70
2023/01/04 02:26:52;;;;;;;4.00;1.10;;;9.20;99.90;;;;;;4143967;28;20026;-70
2023/01/04 02:29:36;;;;;;;2.33;1.10;;;9.20;99.90;;;;;;4140130;28;20018;-70
2023/01/04 02:31:47;;;;;;;5.78;1.75;;;9.30;99.90;;;;;;4140244;28;20088;-70
2023/01/04 02:34:15;;;;;;;3.45;1.20;;;9.20;99.90;;;;;;4143745;28;20112;-70
2023/01/04 02:36:38;;;;;;;4.70;1.35;;;9.30;99.90;;;;;;4143749;28;20066;-70
2023/01/04 02:39:09;;;;;;;4.28;1.05;;;9.30;99.90;;;;;;4144331;28;20052;-70
2023/01/04 02:41:26;;;;;;;2.78;1.17;;;9.30;99.90;;;;;;4144136;28;20503;-70
2023/01/04 02:46:13;;;;;;;5.00;1.13;;;9.30;99.90;;;;;;4141776;28;20034;-70
2023/01/04 02:50:36;;;;;;;2.38;1.05;;;9.40;99.90;;;;;;4126291;28;20049;-70
2023/01/04 02:52:37;;;;;;;5.50;1.52;;;9.40;99.90;;;;;;4127007;28;20030;-70
2023/01/04 02:54:39;;;;;;;5.13;0.95;;;9.40;99.90;;;;;;4141128;28;20105;-70
2023/01/04 02:56:59;;;;;;;2.13;0.73;;;9.40;99.90;;;;;;4143493;28;20069;-70
2023/01/04 02:59:18;;;;;;;5.07;1.10;;;9.40;99.90;;;;;;4137298;28;20045;-70
2023/01/04 03:07:00;;;;;;;2.83;0.70;;;9.60;99.90;;;;;;4143701;28;20465;-70
2023/01/04 03:09:18;;;;;;;4.07;0.90;;;9.60;99.90;;;;;;4147293;28;20153;-70
2023/01/04 03:13:44;;;;;;;1.95;0.65;;;9.60;99.90;;;;;;4146227;28;20038;-69
2023/01/04 03:15:49;;;;;;;3.35;0.77;;;9.60;99.90;;;;;;4141647;28;20436;-68
2023/01/04 03:17:57;;;;;;;6.53;1.00;;;9.70;99.90;;;;;;4141940;28;20032;-69
2023/01/04 03:19:58;;;;;;;2.55;0.70;;;9.70;99.90;;;;;;4146266;28;20117;-70
2023/01/04 03:21:59;;;;;;;3.92;0.80;;;9.70;99.90;;;;;;4146603;28;20075;-70
2023/01/04 03:36:22;;;;;;;1.48;0.80;;;9.90;99.90;;;;;;4146263;28;20034;-70
2023/01/04 03:49:26;;;;;;;1.73;0.75;;;10.00;99.90;;;;;;4135335;28;20678;-70
2023/01/04 03:51:35;;;;;;;0.45;0.32;;;10.10;99.90;;;;;;4129678;28;20042;-70
2023/01/04 03:53:58;;;;;;;1.88;0.57;;;10.00;99.90;;;;;;4139485;28;20381;-70
2023/01/04 03:56:00;;;;;;;3.42;0.77;;;10.00;99.90;;;;;;4145181;28;20381;-69
2023/01/04 03:58:01;;;;;;;1.50;0.68;;;10.00;99.90;;;;;;4146067;28;20477;-70
2023/01/04 04:00:08;;;;;;;1.85;0.85;;;10.00;99.90;;;;;;4146414;28;20037;-70
2023/01/04 04:02:12;;;;;;;2.55;0.43;;;10.00;99.90;;;;;;4146452;28;20049;-69
2023/01/04 04:08:52;;;;;;;1.80;0.47;;;10.00;99.90;;;;;;4140189;28;20054;-69
2023/01/04 04:10:54;;;;;;;1.65;0.50;;;10.00;99.90;;;;;;4143600;28;20069;-69
2023/01/04 04:12:55;;;;;;;0.55;0.35;;;10.00;99.90;;;;;;4145283;28;20054;-70
2023/01/04 04:14:55;;;;;;;1.17;0.57;;;10.00;99.90;;;;;;4146237;28;20030;-70
2023/01/04 04:16:56;;;;;;;1.70;0.40;;;10.10;99.90;;;;;;4145037;28;20030;-70
2023/01/04 04:18:56;;;;;;;2.42;0.60;;;10.10;99.90;;;;;;4145306;28;20030;-70
2023/01/04 04:20:57;;;;;;;1.05;0.47;;;10.00;99.90;;;;;;4145107;28;20072;-70
2023/01/04 04:22:57;;;;;;;0.85;0.40;;;10.00;99.90;;;;;;4145688;28;20033;-70
2023/01/04 04:24:58;;;;;;;2.83;0.90;;;10.10;99.90;;;;;;4146325;28;20038;-70
2023/01/04 04:26:59;;;;;;;1.55;0.50;;;10.10;99.90;;;;;;4144866;28;20128;-70
2023/01/04 04:28:59;;;;;;;1.30;0.50;;;10.10;99.90;;;;;;4146069;28;20037;-70
2023/01/04 04:31:00;;;;;;;1.20;0.52;;;10.10;99.90;;;;;;4145038;28;20033;-70
2023/01/04 04:33:00;;;;;;;2.10;0.70;;;10.10;99.90;;;;;;4145070;28;20081;-71
2023/01/04 04:35:01;;;;;;;2.45;0.70;;;10.10;99.90;;;;;;4145708;28;20030;-70
2023/01/04 04:37:02;;;;;;;1.67;0.30;;;10.10;99.90;;;;;;4144702;28;20020;-70
2023/01/04 04:39:03;;;;;;;0.75;0.63;;;10.10;99.90;;;;;;4144683;28;20503;-70
2023/01/04 04:43:28;;;;;;;2.03;0.55;;;10.20;99.90;;;;;;4141631;28;20022;-69
2023/01/04 04:45:28;;;;;;;1.40;0.45;;;10.20;99.90;;;;;;4141588;28;20041;-70
2023/01/04 04:47:29;;;;;;;2.42;0.57;;;10.20;99.90;;;;;;4145252;28;20025;-70
2023/01/04 04:49:30;;;;;;;1.98;0.30;;;10.20;99.90;;;;;;4143842;28;20441;-70
2023/01/04 04:51:30;;;;;;;2.15;0.65;;;10.20;99.90;;;;;;4145337;28;20470;-70
2023/01/04 04:53:31;;;;;;;1.20;0.43;;;10.20;99.90;;;;;;4144796;28;20030;-70
2023/01/04 04:55:31;;;;;;;1.50;0.47;;;10.20;99.90;;;;;;4145262;28;20038;-70
2023/01/04 04:57:32;;;;;;;0.77;0.40;;;10.20;99.90;;;;;;4144981;28;20591;-69
2023/01/04 04:59:33;;;;;;;1.30;0.50;;;10.20;99.90;;;;;;4145786;28;20443;-70
2023/01/04 05:01:33;;;;;;;1.92;0.40;;;10.20;99.90;;;;;;4143456;28;20396;-70
2023/01/04 05:03:34;;;;;;;4.35;0.63;;;10.20;99.90;;;;;;4144194;28;20973;-70
2023/01/04 05:05:34;;;;;;;1.23;0.40;;;10.20;99.90;;;;;;4142153;28;20472;-70
2023/01/04 05:07:35;;;;;;;0.40;0.30;;;10.20;99.90;;;;;;4140006;28;20034;-69
2023/01/04 05:09:35;;;;;;;2.88;0.40;;;10.20;99.90;;;;;;4132623;28;20100;-69
2023/01/04 05:13:55;;;;;;;2.22;0.70;;;10.20;99.90;;;;;;4141622;28;20116;-71
2023/01/04 05:15:56;;;;;;;1.90;0.50;;;10.20;99.90;;;;;;4142434;28;20084;-71
2023/01/04 05:17:56;;;;;;;1.38;0.40;;;10.30;99.90;;;;;;4142176;28;20112;-71
2023/01/04 05:19:57;;;;;;;0.38;0.35;;;10.30;99.90;;;;;;4154189;28;20033;-71
2023/01/04 05:21:57;;;;;;;1.75;0.63;;;10.30;99.90;;;;;;4138168;28;20500;-71
2023/01/04 05:23:58;;;;;;;0.98;0.45;;;10.30;99.90;;;;;;4144580;28;20405;-71
2023/01/04 05:26:00;;;;;;;1.08;0.47;;;10.30;99.90;;;;;;4145606;28;20382;-72
2023/01/04 05:28:01;;;;;;;2.90;0.47;;;10.30;99.90;;;;;;4147617;28;20391;-71
2023/01/04 05:32:24;;;;;;;1.30;0.43;;;10.30;99.90;;;;;;4135708;28;20046;-71
2023/01/04 05:34:25;;;;;;;1.25;0.57;;;10.40;99.90;;;;;;4154880;28;20025;-71
2023/01/04 05:36:26;;;;;;;1.13;0.40;;;10.30;99.90;;;;;;4139928;28;20045;-71
2023/01/04 05:38:27;;;;;;;5.10;0.43;;;10.40;99.90;;;;;;4143288;28;20057;-71
2023/01/04 05:40:27;;;;;;;1.83;0.80;;;10.40;99.90;;;;;;4145667;28;20037;-72
2023/01/04 05:42:28;;;;;;;2.15;0.52;;;10.40;99.90;;;;;;4154690;28;20034;-71
2023/01/04 05:44:29;;;;;;;1.80;0.60;;;10.50;99.90;;;;;;4142729;28;20465;-72
2023/01/04 05:46:29;;;;;;;0.95;0.63;;;10.50;99.90;;;;;;4144729;28;20582;-71
2023/01/04 05:48:30;;;;;;;2.85;0.52;;;10.50;99.90;;;;;;4144953;28;20508;-71
2023/01/04 05:50:31;;;;;;;3.13;0.52;;;10.50;99.90;;;;;;4150056;28;20507;-70
2023/01/04 05:52:31;;;;;;;0.63;0.40;;;10.50;99.90;;;;;;4152550;28;20084;-71
2023/01/04 05:54:32;;;;;;;0.43;0.30;;;10.50;99.90;;;;;;4139422;28;20489;-72
2023/01/04 05:56:32;;;;;;;0.47;0.30;;;10.50;99.90;;;;;;4130555;28;21129;-72
2023/01/04 05:58:33;;;;;;;0.85;0.50;;;10.50;99.90;;;;;;4145833;28;20041;-71
2023/01/04 06:00:33;;;;;;;1.13;0.55;;;10.50;99.90;;;;;;4146363;28;20117;-71
2023/01/04 06:02:34;;;;;;;0.52;0.40;;;10.50;99.90;;;;;;4144979;28;20030;-71
2023/01/04 06:04:35;;;;;;;2.30;0.60;;;10.50;99.90;;;;;;4143275;28;20493;-69
2023/01/04 06:06:36;;;;;;;3.47;0.57;;;10.50;99.90;;;;;;4138930;28;20517;-70
2023/01/04 06:08:36;;;;;;;4.85;1.00;;;10.60;99.90;;;;;;4143819;28;20032;-70
2023/01/04 06:10:37;;;;;;;1.10;0.50;;;10.60;99.90;;;;;;4138923;28;20034;-70
2023/01/04 06:12:38;;;;;;;4.00;0.70;;;10.60;99.90;;;;;;4144044;28;20041;-71
2023/01/04 06:14:39;;;;;;;0.93;0.50;;;10.60;99.90;;;;;;4143963;28;20026;-70
2023/01/04 06:16:39;;;;;;;0.88;0.43;;;10.70;99.90;;;;;;4139457;28;20026;-71
2023/01/04 06:18:40;;;;;;;1.15;0.52;;;10.70;99.90;;;;;;4143611;28;20469;-70
2023/01/04 06:20:42;;;;;;;2.10;0.60;;;10.70;99.90;;;;;;4142209;28;20419;-71
2023/01/04 06:22:42;;;;;;;0.83;0.47;;;10.70;99.90;;;;;;4138663;28;20044;-71
2023/01/04 06:24:43;;;;;;;0.65;0.32;;;10.70;99.90;;;;;;4143836;28;20088;-71
2023/01/04 06:26:44;;;;;;;2.25;0.57;;;10.80;99.90;;;;;;4132700;28;20026;-70
2023/01/04 06:28:45;;;;;;;1.25;0.60;;;10.80;99.90;;;;;;4143064;28;20033;-71
2023/01/04 06:30:45;;;;;;;1.48;0.60;;;10.70;99.90;;;;;;4143066;28;20037;-71
2023/01/04 06:32:46;;;;;;;0.95;0.43;;;10.80;99.90;;;;;;4132780;28;20117;-70
2023/01/04 06:34:46;;;;;;;2.15;0.60;;;10.70;99.90;;;;;;4144747;28;20481;-70
2023/01/04 06:36:47;;;;;;;2.47;0.63;;;10.80;99.90;;;;;;4147434;28;20477;-70
2023/01/04 06:38:48;;;;;;;0.75;0.50;;;10.80;99.90;;;;;;4148365;28;20037;-70
2023/01/04 06:40:49;;;;;;;1.27;0.55;;;10.80;99.90;;;;;;4146033;28;20077;-71
2023/01/04 06:42:49;;;;;;;0.80;0.47;;;10.80;99.90;;;;;;4147236;28;20038;-71
2023/01/04 06:44:50;;;;;;;1.35;0.38;;;10.80;99.90;;;;;;4147276;28;20116;-71
2023/01/04 06:46:50;;;;;;;2.78;0.60;;;10.90;99.90;;;;;;4141458;28;20038;-71
2023/01/04 06:48:52;;;;;;;1.77;0.57;;;10.90;99.90;;;;;;4145866;28;20045;-70
2023/01/04 06:50:53;;;;;;;0.60;0.25;;;10.90;99.90;;;;;;4139024;28;20030;-71
2023/01/04 06:52:53;;;;;;;2.35;0.65;;;10.90;99.90;;;;;;4139032;28;20125;-71
2023/01/04 06:54:54;;;;;;;0.80;0.73;;;10.90;99.90;;;;;;4152764;28;20030;-71
2023/01/04 06:56:54;;;;;;;1.33;0.63;;;10.90;99.90;;;;;;4141585;28;20046;-71
2023/01/04 06:58:55;;;;;;;0.70;0.50;;;11.00;99.90;;;;;;4141207;28;20366;-71
2023/01/04 07:00:56;;;;;;;1.70;0.70;;;11.00;99.90;;;;;;4139833;28;20387;-71
2023/01/04 07:02:56;;;;;;;0.98;0.50;;;11.00;99.90;;;;;;4135859;28;20125;-70
2023/01/04 07:04:57;;;;;;;0.45;0.30;;;11.00;99.90;;;;;;4131830;28;20068;-71
2023/01/04 07:06:57;;;;;;;3.00;0.93;;;11.00;99.90;;;;;;4135200;28;20033;-71
2023/01/04 07:08:58;;;;;;;1.75;0.70;;;11.00;99.90;;;;;;4125343;28;20100;-71
2023/01/04 07:10:58;;;;;;;0.73;0.50;;;11.00;99.90;;;;;;4135683;28;20041;-71
2023/01/04 07:12:59;;;;;;;0.82;0.50;;;11.00;99.90;;;;;;4138449;28;20057;-71
2023/01/04 07:15:00;;;;;;;1.33;0.68;;;11.00;99.90;;;;;;4133172;28;20042;-71
2023/01/04 07:17:00;;;;;;;1.08;0.40;;;11.00;99.90;;;;;;4140117;28;20137;-71
2023/01/04 07:19:01;;;;;;;0.98;0.50;;;11.00;99.90;;;;;;4139543;28;20038;-70
2023/01/04 07:21:02;;;;;;;1.15;0.50;;;11.00;99.90;;;;;;4141685;28;20037;-70
2023/01/04 07:23:02;;;;;;;1.85;0.60;;;11.00;99.90;;;;;;4143538;28;20536;-71
2023/01/04 07:25:03;;;;;;;1.80;0.70;;;11.00;99.90;;;;;;4143798;28;20058;-71
2023/01/04 07:27:04;;;;;;;0.95;0.50;;;11.10;99.90;;;;;;4142242;28;20041;-71
2023/01/04 07:29:14;;;;;;;0.95;0.50;;;11.00;99.90;;;;;;4141755;28;20060;-71
2023/01/04 07:31:15;;;;;;;1.30;0.75;;;11.00;99.90;;;;;;4132202;28;20041;-71
2023/01/04 07:33:15;;;;;;;0.65;0.50;;;11.10;99.90;;;;;;4139101;28;20041;-71
2023/01/04 07:35:16;;;;;;;1.63;0.68;;;11.10;99.90;;;;;;4135897;28;20030;-71
2023/01/04 07:37:16;;;;;;;0.65;0.50;;;11.10;99.90;;;;;;4140016;28;20045;-69
2023/01/04 07:39:18;;;;;;;1.48;0.40;;;11.10;99.90;;;;;;4136809;28;20034;-69
2023/01/04 07:41:18;;;;;;;1.20;0.63;;;11.10;99.90;;;;;;4129951;28;20118;-71
2023/01/04 07:43:19;;;;;;;2.22;0.47;;;11.20;99.90;;;;;;4135418;28;20034;-71
2023/01/04 07:45:19;;;;;;;0.80;0.40;;;11.20;99.90;;;;;;4134707;28;20042;-74
2023/01/04 07:47:20;;;;;;;3.53;0.50;;;11.20;99.90;;;;;;4127528;28;20034;-75
2023/01/04 07:49:21;;;;;;;1.92;0.65;;;11.20;99.90;;;;;;4137317;28;20033;-73
2023/01/04 07:51:21;;;;;;;3.10;0.65;;;11.30;99.90;;;;;;4131543;28;20030;-74
2023/01/04 07:53:22;;;;;;;1.23;0.50;;;11.30;99.90;;;;;;4135736;28;20088;-75
2023/01/04 07:55:22;;;;;;;0.50;0.50;;;11.30;99.90;;;;;;4128420;28;20035;-75
2023/01/04 07:57:23;;;;;;;0.98;0.50;;;11.30;99.90;;;;;;4141592;28;20041;-75
2023/01/04 07:59:24;;;;;;;0.75;0.50;;;11.30;99.90;;;;;;4147916;28;20117;-75
2023/01/04 08:01:26;;;;;;;0.93;0.50;;;11.30;99.90;;;;;;4144865;28;20497;-75
2023/01/04 08:03:27;;;;;;;0.85;0.40;;;11.30;99.90;;;;;;4148998;28;20516;-75
2023/01/04 08:05:30;;;;;;;1.63;0.55;;;11.30;99.90;;;;;;4145276;28;20045;-74
2023/01/04 08:07:30;;;;;;;0.68;0.50;;;11.40;99.90;;;;;;4144769;28;20060;-75
2023/01/04 08:09:31;;;;;;;1.77;0.40;;;11.30;99.90;;;;;;4147757;28;20038;-75
2023/01/04 08:11:33;;;;;;;0.75;0.38;;;11.40;99.90;;;;;;4146930;28;20044;-74
2023/01/04 08:13:33;;;;;;;0.30;0.30;;;11.40;99.90;;;;;;4140754;28;20061;-74
2023/01/04 08:15:34;;;;;;;2.97;0.77;;;11.40;99.90;;;;;;4141229;28;20030;-75
2023/01/04 08:17:34;;;;;;;1.55;0.57;;;11.40;99.90;;;;;;4142023;28;20060;-75
2023/01/04 08:19:35;;;;;;;0.75;0.30;;;11.40;99.90;;;;;;4142948;28;20496;-74
2023/01/04 08:21:36;;;;;;;1.38;0.47;;;11.40;99.90;;;;;;4143992;28;20056;-74
2023/01/04 08:23:36;;;;;;;1.75;0.68;;;11.40;99.90;;;;;;4134770;28;20457;-74
2023/01/04 08:25:37;;;;;;;3.08;0.85;;;11.50;99.90;;;;;;4137969;28;20045;-75
2023/01/04 08:27:38;;;;;;;1.15;0.70;;;11.50;99.90;;;;;;4134236;28;20136;-74
2023/01/04 08:29:38;;;;;;;2.40;0.60;;;11.50;99.90;;;;;;4136796;28;20030;-73
2023/01/04 08:31:39;;;;;;;3.85;0.80;;;11.50;99.90;;;;;;4131713;28;20038;-74
2023/01/04 08:33:41;;;;;;;0.98;0.55;;;11.60;99.90;;;;;;4142217;28;20117;-74
2023/01/04 08:35:42;;;;;;;1.70;0.50;;;11.50;99.90;;;;;;4136092;28;20390;-75
2023/01/04 08:37:42;;;;;;;1.23;0.73;;;11.50;99.90;;;;;;4132888;28;20129;-74
2023/01/04 08:39:43;;;;;;;1.52;0.50;;;11.50;99.90;;;;;;4132566;28;20444;-74
2023/01/04 08:41:53;;;;;;;1.30;0.63;;;11.60;99.90;;;;;;4131367;28;20492;-74
2023/01/04 08:43:53;;;;;;;1.08;0.50;;;11.50;99.90;;;;;;4136961;28;20068;-74
2023/01/04 08:45:54;;;;;;;0.90;0.50;;;11.60;99.90;;;;;;4134482;28;20030;-74
2023/01/04 08:47:54;;;;;;;0.95;0.57;;;11.60;99.90;;;;;;4136840;28;20079;-74
2023/01/04 08:49:55;;;;;;;1.50;0.73;;;11.60;99.90;;;;;;4127073;28;20030;-74
2023/01/04 08:51:56;;;;;;;1.98;0.88;;;11.60;99.90;;;;;;4124764;28;20125;-74
2023/01/04 08:53:57;;;;;;;1.08;0.35;;;11.60;99.90;;;;;;4138821;28;20029;-75
2023/01/04 08:55:59;;;;;;;1.58;0.50;;;11.60;99.90;;;;;;4136769;28;20018;-74
2023/01/04 08:58:00;;;;;;;1.80;0.40;;;11.70;99.90;;;;;;4165313;28;20044;-74
2023/01/04 09:00:01;;;;;;;4.22;0.73;;;11.70;99.90;;;;;;4137258;28;20026;-75
2023/01/04 09:02:01;;;;;;;0.75;0.47;;;11.70;99.90;;;;;;4140973;28;20048;-75
2023/01/04 09:04:02;;;;;;;0.82;0.40;;;11.70;99.90;;;;;;4142800;28;20083;-74
2023/01/04 09:06:12;;;;;;;1.05;0.40;;;11.70;99.90;;;;;;4142285;28;20121;-75
2023/01/04 09:08:12;;;;;;;0.82;0.50;;;11.70;99.90;;;;;;4129620;28;20172;-74
2023/01/04 09:10:13;;;;;;;2.67;0.85;;;11.70;99.90;;;;;;4134997;28;20042;-73
2023/01/04 09:12:14;;;;;;;1.13;0.50;;;11.70;99.90;;;;;;4140681;28;20374;-72
2023/01/04 09:14:14;;;;;;;0.85;0.45;;;11.80;99.90;;;;;;4140460;28;20057;-74
2023/01/04 09:16:18;;;;;;;1.40;0.63;;;11.70;99.90;;;;;;4138104;28;20429;-73
2023/01/04 09:18:18;;;;;;;1.35;0.60;;;11.80;99.90;;;;;;4135945;28;20038;-72
2023/01/04 09:20:19;;;;;;;1.38;0.60;;;11.70;99.90;;;;;;4130643;28;20504;-72
2023/01/04 09:22:20;;;;;;;1.05;0.63;;;11.70;99.90;;;;;;4136449;28;20433;-73
2023/01/04 09:24:20;;;;;;;1.98;0.70;;;11.70;99.90;;;;;;4128493;28;20480;-74
2023/01/04 09:26:22;;;;;;;1.23;0.73;;;11.70;99.90;;;;;;4139008;28;20037;-73
2023/01/04 09:28:23;;;;;;;1.25;0.43;;;11.70;99.90;;;;;;4142640;28;20033;-74
2023/01/04 09:30:23;;;;;;;3.17;0.95;;;11.70;99.90;;;;;;4138804;28;20161;-73
2023/01/04 09:32:24;;;;;;;3.35;0.80;;;11.70;99.90;;;;;;4134961;28;20045;-74
2023/01/04 09:34:25;;;;;;;2.42;0.80;;;11.70;99.90;;;;;;4139542;28;20042;-74
2023/01/04 09:36:26;;;;;;;2.40;0.90;;;11.70;99.90;;;;;;4134288;28;20553;-74
2023/01/04 09:38:26;;;;;;;1.40;0.70;;;11.70;99.90;;;;;;4142502;28;20069;-74
2023/01/04 09:40:38;;;;;;;1.90;0.73;;;11.70;99.90;;;;;;4146428;28;20042;-75
2023/01/04 09:42:42;;;;;;;1.87;0.80;;;11.80;99.90;;;;;;4138988;28;20044;-74
2023/01/04 09:44:53;;;;;;;4.97;0.85;;;11.80;99.90;;;;;;4137147;28;20038;-75
2023/01/04 09:47:03;;;;;;;3.28;0.65;;;11.80;99.90;;;;;;4129010;28;20066;-74
2023/01/04 09:49:16;;;;;;;2.47;0.80;;;11.80;99.90;;;;;;4129026;28;20069;-74
2023/01/04 09:51:19;;;;;;;;;;;11.90;99.90;;;;;;4129540;28;20165;-74
2023/01/04 09:53:25;;;;;;;2.33;0.80;;;11.90;99.90;;;;;;4147504;28;19917;-73
2023/01/04 09:55:33;;;;;;;1.40;0.52;;;11.90;99.90;;;;;;4127266;28;20582;-73
2023/01/04 09:57:39;;;;;;;0.90;0.70;;;11.90;99.90;;;;;;4132400;28;20025;-74
2023/01/04 09:59:39;;;;;;;3.67;1.10;;;11.90;99.90;;;;;;4129157;28;20385;-74
2023/01/04 10:01:56;;;;;;;1.50;0.55;;;11.90;99.90;;;;;;4131547;28;20121;-74
2023/01/04 10:04:00;;;;;;;1.50;0.70;;;12.00;99.90;;;;;;4131331;28;20528;-73
2023/01/04 10:06:02;;;;;;;2.60;0.50;;;11.90;99.90;;;;;;4128362;28;20063;-73
2023/01/04 10:08:03;;;;;;;3.67;1.15;;;12.00;99.90;;;;;;4130473;28;20489;-73
2023/01/04 10:10:05;;;;;;;1.67;0.68;;;12.00;99.90;;;;;;4133453;28;20038;-74
2023/01/04 10:12:43;;;;;;;0.85;0.52;;;12.00;99.90;;;;;;4136576;28;20035;-73
2023/01/04 10:14:57;;;;;;;0.68;0.50;;;12.00;99.90;;;;;;4139015;28;20043;-73
2023/01/04 10:17:22;;;;;;;3.63;1.15;;;12.00;99.90;;;;;;4130806;28;20194;-73
2023/01/04 10:19:45;;;;;;;2.20;0.75;;;12.00;99.90;;;;;;4132189;28;20538;-73
2023/01/04 10:21:51;;;;;;;;;;;12.00;99.90;;;;;;4132482;28;20037;-73
2023/01/04 10:24:05;;;;;;;1.77;0.80;;;12.00;99.90;;;;;;4137591;28;19964;-72
2023/01/04 10:26:12;;;;;;;2.65;0.70;;;12.00;99.90;;;;;;4133868;28;20116;-73
2023/01/04 10:28:31;;;;;;;3.40;0.98;;;12.00;99.90;;;;;;4144810;28;20026;-73
2023/01/04 10:31:01;;;;;;;3.15;0.73;;;12.00;99.90;;;;;;4144099;28;20545;-75
2023/01/04 10:33:12;;;;;;;3.70;0.90;;;12.00;99.90;;;;;;4147828;28;20428;-73
2023/01/04 10:35:18;;;;;;;3.55;0.90;;;12.00;99.90;;;;;;4148517;28;20025;-75
2023/01/04 10:37:24;;;;;;;1.27;0.55;;;12.00;99.90;;;;;;4144593;28;20037;-73
2023/01/04 10:39:29;;;;;;;1.88;0.90;;;12.10;99.90;;;;;;4144797;28;20068;-73
2023/01/04 10:41:39;;;;;;;1.17;0.80;;;12.10;99.90;;;;;;4144258;28;20046;-73
2023/01/04 10:43:51;;;;;;;3.25;0.70;;;12.10;99.90;;;;;;4138362;28;20084;-73
2023/01/04 10:46:04;;;;;;;4.63;1.08;;;12.10;99.90;;;;;;4139968;28;20440;-72
2023/01/04 10:48:14;;;;;;;2.35;0.90;;;12.10;99.90;;;;;;4138033;28;20030;-73
2023/01/04 10:50:40;;;;;;;0.95;0.52;;;12.00;99.90;;;;;;4127983;28;20421;-73
2023/01/04 10:52:50;;;;;;;2.63;0.80;;;12.00;99.90;;;;;;4134499;28;20054;-73
2023/01/04 10:54:58;;;;;;;1.77;0.75;;;12.00;99.90;;;;;;4144202;28;20052;-72
2023/01/04 10:57:20;;;;;;;1.02;0.52;;;12.10;99.90;;;;;;4141956;28;20117;-73
2023/01/04 10:59:23;;;;;;;2.08;0.80;;;12.00;99.90;;;;;;4142611;28;20042;-71
2023/01/04 11:01:32;;;;;;;1.52;0.60;;;12.10;99.90;;;;;;4142620;28;20041;-73
2023/01/04 11:03:53;;;;;;;2.72;1.02;;;12.10;99.90;;;;;;4144854;28;20128;-73
2023/01/04 11:06:14;;;;;;;1.63;0.80;;;12.10;99.90;;;;;;4142925;28;20041;-74
2023/01/04 11:08:22;;;;;;;2.70;0.68;;;12.10;99.90;;;;;;4142651;28;20038;-74
2023/01/04 11:10:30;;;;;;;2.80;0.98;;;12.10;99.90;;;;;;4141624;28;20384;-74
2023/01/04 11:12:31;;;;;;;1.80;0.60;;;12.10;99.90;;;;;;4143774;28;20124;-73
2023/01/04 11:14:32;;;;;;;3.42;1.02;;;12.10;99.90;;;;;;4143411;28;20409;-74
2023/01/04 11:16:32;;;;;;;1.70;0.70;;;12.10;99.90;;;;;;4141964;28;20038;-73
2023/01/04 11:18:36;;;;;;;2.35;0.73;;;12.20;99.90;;;;;;4143878;28;20515;-73
2023/01/04 11:20:36;;;;;;;3.17;0.88;;;12.10;99.90;;;;;;4142635;28;20030;-73
2023/01/04 11:22:47;;;;;;;2.47;1.00;;;12.10;99.90;;;;;;4143096;28;20389;-74
2023/01/04 11:24:53;;;;;;;2.05;0.50;;;12.10;99.90;;;;;;4141339;28;20025;-73
2023/01/04 11:26:55;;;;;;;2.08;0.80;;;12.20;99.90;;;;;;4142660;28;20523;-73
2023/01/04 11:29:05;;;;;;;1.52;0.88;;;12.20;99.90;;;;;;4143412;28;20034;-73
2023/01/04 11:31:32;;;;;;;2.88;1.08;;;12.20;99.90;;;;;;4140133;28;20103;-74
2023/01/04 11:34:00;;;;;;;3.33;0.90;;;12.20;99.90;;;;;;4141490;28;20037;-73
2023/01/04 11:36:02;;;;;;;2.00;0.60;;;12.20;99.90;;;;;;4141822;28;20083;-73
2023/01/04 11:38:33;;;;;;;1.75;0.50;;;12.20;99.90;;;;;;4142729;28;20029;-73
2023/01/04 11:40:34;;;;;;;1.95;0.80;;;12.20;99.90;;;;;;4140984;28;20065;-74